Latest Weather Observations for Lady Elliot Island

IDQ60801

Issued at 9:02 pm EST Tuesday 24 January 2017 (issued every 30 minutes, with the page automatically refreshed every 10 minutes)

About weather observations | Map of weather stations | Latest weather observations for QLD | Other Formats
Station Details ID: 039059 Name: LADY ELLIOT ISLAND Lat: -24.11 Lon: 152.72 Height: 3.6 m
Data from the previous 72 hours. | See also: Recent months at Lady Elliot Island
Date/Time
EST
Temp
°C
App
Temp
°C
Dew
Point
°C
Rel
Hum
%
Delta-T
°C
Wind Press
QNH
hPa
Press
MSL
hPa
Rain since
9am
mm
Dir  Spd
km/h
Gust
km/h
Spd
kts
Gust
kts
24/08:30pm 26.2 27.5 20.8 72 3.6 ENE 15 22 8 12 1014.3 1014.3 0.0
24/08:00pm 26.4 27.1 21.6 75 3.2 ENE 20 28 11 15 1014.1 1014.1 0.0
24/07:30pm 26.2 27.2 21.0 73 3.4 ENE 17 26 9 14 1013.9 1013.9 0.0
24/07:00pm 26.5 26.9 21.0 72 3.6 ENE 20 26 11 14 1013.7 1013.7 0.0
24/06:30pm 26.8 27.6 21.3 72 3.7 ENE 19 26 10 14 1013.5 1013.5 0.0
24/06:00pm 27.4 28.1 21.2 69 4.1 ENE 19 26 10 14 1013.1 1013.1 0.0
24/05:30pm 28.1 29.3 21.4 67 4.5 ENE 17 24 9 13 1012.9 1012.9 0.0
24/05:00pm 28.5 30.0 21.3 65 4.8 ENE 15 24 8 13 1012.6 1012.6 0.0
24/04:30pm 28.8 29.9 21.3 64 5.0 ENE 17 24 9 13 1012.5 1012.5 0.0
24/04:00pm 29.1 30.0 21.6 64 5.0 E 19 24 10 13 1012.5 1012.5 0.0
24/03:30pm 29.4 29.9 20.8 60 5.7 E 19 24 10 13 1013.0 1013.0 0.0
24/03:00pm 30.0 30.3 20.8 57 6.1 ESE 20 26 11 14 1013.3 1013.3 0.0
24/02:30pm 29.5 29.3 20.6 58 5.9 ESE 22 26 12 14 1013.4 1013.4 0.0
24/02:00pm 31.3 31.8 22.0 57 6.3 ESE 22 26 12 14 1013.6 1013.6 0.0
24/01:30pm 30.4 30.8 21.8 60 5.8 ESE 22 28 12 15 1013.9 1013.9 0.0
24/01:00pm 30.7 30.8 21.2 57 6.4 ESE 22 28 12 15 1014.1 1014.1 0.0
24/12:30pm 30.0 30.5 21.1 59 5.9 ESE 20 26 11 14 1014.5 1014.5 0.0
24/12:00pm 29.5 29.2 20.4 58 6.0 ESE 22 28 12 15 1014.7 1014.7 0.0
24/11:30am 29.7 30.0 20.5 57 6.1 ESE 19 26 10 14 1014.9 1014.9 0.0
24/11:00am 29.9 30.6 21.6 61 5.6 ESE 20 26 11 14 1015.3 1015.3 0.0
24/10:30am 29.7 30.3 20.3 57 6.2 ESE 17 22 9 12 1015.5 1015.5 0.0
24/10:00am 29.0 30.3 21.7 64 4.9 SSE 17 20 9 11 1015.6 1015.6 0.0
24/09:30am 28.9 29.6 20.4 60 5.6 ESE 17 22 9 12 1015.8 1015.8 0.0
24/09:00am 28.2 29.1 21.5 67 4.5 SE 19 26 10 14 1015.7 1015.7 0.0
24/08:30am 28.2 29.1 22.0 69 4.2 SE 20 26 11 14 1015.7 1015.7 0.0
24/08:00am 28.3 28.9 21.1 65 4.8 ESE 19 26 10 14 1015.7 1015.7 0.0
24/07:30am 27.1 28.2 21.2 70 3.9 ESE 17 22 9 12 1015.7 1015.7 0.0
24/07:00am 26.8 26.5 20.4 68 4.2 ESE 22 26 12 14 1015.6 1015.6 0.0
24/06:30am 26.5 26.2 20.3 68 4.1 ESE 22 26 12 14 1015.4 1015.4 0.0
24/06:00am 26.4 26.6 20.5 70 3.9 ESE 20 24 11 13 1015.2 1015.2 0.0
24/05:30am 26.3 26.9 20.2 69 4.0 ESE 17 22 9 12 1014.9 1014.9 0.0
24/05:00am 26.0 25.8 19.4 67 4.3 ESE 19 24 10 13 1014.6 1014.6 0.0
24/04:30am 26.2 26.0 19.8 68 4.2 ESE 20 26 11 14 1014.2 1014.2 0.0
24/04:00am 26.0 26.0 20.1 70 3.8 ESE 20 24 11 13 1014.0 1014.0 0.0
24/03:30am 26.0 27.9 20.6 72 3.5 E 11 17 6 9 1014.0 1014.0 0.0
24/03:00am 25.5 27.1 19.9 71 3.6 ENE 11 17 6 9 1014.2 1014.2 0.0
24/02:30am 25.9 25.6 21.1 75 3.2 E 24 30 13 16 1014.2 1014.2 0.0
24/02:00am 25.9 24.8 20.2 71 3.7 ESE 26 32 14 17 1014.1 1014.1 0.0
24/01:30am 25.9 25.2 20.2 71 3.7 E 24 30 13 16 1014.1 1014.1 0.0
24/01:00am 25.9 24.5 21.1 75 3.2 ESE 30 35 16 19 1014.2 1014.2 0.0
24/12:30am 26.2 25.6 20.5 71 3.7 E 24 30 13 16 1014.3 1014.3 0.0
24/12:00am 26.0 26.5 20.8 73 3.4 ESE 19 20 10 11 1014.6 1014.6 0.0
 
Date/Time
EST
Temp
°C
App
Temp
°C
Dew
Point
°C
Rel
Hum
%
Delta-T
°C
Wind Press
QNH
hPa
Press
MSL
hPa
Rain since
9am
mm
Dir  Spd
km/h
Gust
km/h
Spd
kts
Gust
kts
23/11:30pm 25.2 25.2 20.2 74 3.3 E 20 28 11 15 1014.8 1014.8 0.0
23/11:00pm 26.1 25.2 20.7 72 3.5 ESE 26 32 14 17 1014.9 1014.9 0.0
23/10:30pm 26.2 25.2 20.5 71 3.7 ESE 26 32 14 17 1015.2 1015.2 0.0
23/10:00pm 26.2 25.2 20.5 71 3.7 ESE 26 35 14 19 1015.4 1015.4 0.0
23/09:30pm 26.2 25.1 21.0 73 3.4 ESE 28 35 15 19 1015.5 1015.5 0.0
23/09:00pm 26.1 25.1 20.4 71 3.7 ESE 26 33 14 18 1015.5 1015.5 0.0
23/08:30pm 26.1 25.0 20.2 70 3.8 ESE 26 33 14 18 1015.2 1015.2 0.0
23/08:00pm 26.0 24.5 19.4 67 4.2 ESE 26 32 14 17 1015.0 1015.0 0.0
23/07:30pm 26.5 24.0 18.9 63 4.9 ESE 30 37 16 20 1014.9 1014.9 0.0
23/07:00pm 26.5 24.5 19.1 64 4.8 ESE 28 35 15 19 1014.6 1014.6 0.0
23/06:30pm 26.6 24.2 19.0 63 4.9 ESE 30 37 16 20 1014.3 1014.3 0.0
23/06:00pm 27.0 24.8 18.8 60 5.3 ESE 28 35 15 19 1013.8 1013.8 0.0
23/05:30pm 27.4 25.3 19.7 63 5.0 ESE 30 37 16 20 1013.3 1013.3 0.0
23/05:00pm 27.7 25.5 19.5 61 5.3 ESE 30 37 16 20 1012.9 1012.9 0.0
23/04:30pm 27.4 25.6 19.5 62 5.1 ESE 28 37 15 20 1012.7 1012.7 0.0
23/04:00pm 28.5 27.0 20.2 60 5.5 ESE 28 35 15 19 1012.7 1012.7 0.0
23/03:30pm 28.8 27.4 20.5 61 5.5 ESE 28 35 15 19 1012.7 1012.7 0.0
23/03:00pm 29.0 27.9 21.0 62 5.3 ESE 28 35 15 19 1012.9 1012.9 0.0
23/02:30pm 29.2 28.0 20.9 61 5.5 ESE 28 35 15 19 1013.0 1013.0 0.0
23/02:00pm 29.2 27.7 20.9 61 5.5 ESE 30 37 16 20 1013.2 1013.2 0.0
23/01:30pm 29.6 28.3 20.7 58 5.9 ESE 28 35 15 19 1013.4 1013.4 0.0
23/01:00pm 30.3 29.9 21.7 60 5.8 ESE 26 32 14 17 1013.6 1013.6 0.0
23/12:30pm 29.6 28.2 20.5 58 6.0 SE 28 35 15 19 1014.0 1014.0 0.0
23/12:00pm 30.0 29.6 21.7 61 5.6 SE 26 35 14 19 1014.3 1014.3 0.0
23/11:30am 29.1 27.7 20.5 59 5.7 SE 28 35 15 19 1014.7 1014.7 0.0
23/11:00am 29.3 27.5 19.6 56 6.3 SE 28 33 15 18 1014.8 1014.8 0.0
23/10:30am 29.5 28.2 19.8 56 6.4 SE 26 33 14 18 1014.9 1014.9 0.0
23/10:00am 29.1 28.4 20.3 59 5.8 ESE 24 33 13 18 1015.1 1015.1 0.0
23/09:30am 28.9 28.1 20.1 59 5.8 ESE 24 32 13 17 1015.1 1015.1 0.0
23/09:00am 28.4 28.0 20.2 61 5.4 ESE 22 30 12 16 1015.2 1015.2 4.8
23/08:30am 27.9 27.2 19.4 60 5.5 ESE 22 28 12 15 1015.1 1015.1 4.8
23/08:00am 26.2 25.8 21.0 73 3.4 SE 24 30 13 16 1015.0 1015.0 4.8
23/07:30am 26.0 24.7 19.9 69 4.0 SE 26 32 14 17 1014.8 1014.8 0.2
23/07:00am 26.7 25.0 19.8 66 4.5 SE 28 35 15 19 1014.5 1014.5 0.0
23/06:30am 25.8 23.9 20.1 71 3.7 SE 30 37 16 20 1014.2 1014.2 0.0
23/06:00am 25.7 24.1 20.0 71 3.7 SE 28 39 15 21 1013.8 1013.8 0.0
23/05:30am 25.4 23.2 20.4 74 3.3 SE 32 39 17 21 1013.3 1013.3 0.0
23/05:00am 24.5 23.5 21.2 82 2.2 ESE 28 39 15 21 1012.8 1012.8 0.0
23/04:30am 24.4 22.4 20.7 80 2.4 SE 32 39 17 21 1012.7 1012.7 0.0
23/04:00am 25.5 23.8 20.5 74 3.3 SE 30 41 16 22 1012.5 1012.5 0.0
23/03:30am 25.7 23.9 19.6 69 3.9 ESE 28 35 15 19 1012.4 1012.4 0.0
23/03:00am 25.6 23.2 19.0 67 4.2 ESE 30 39 16 21 1012.6 1012.6 0.0
23/02:30am 25.6 23.3 19.3 68 4.0 ESE 30 39 16 21 1012.6 1012.6 0.0
23/02:00am 25.7 23.7 20.0 71 3.7 SE 30 35 16 19 1012.6 1012.6 0.0
23/01:30am 25.8 23.4 19.2 67 4.2 SE 30 39 16 21 1012.8 1012.8 0.0
23/01:00am 25.9 24.3 20.0 70 3.8 ESE 28 37 15 20 1013.1 1013.1 0.0
23/12:30am 26.0 24.2 20.3 71 3.7 ESE 30 41 16 22 1013.5 1013.5 0.0
23/12:00am 25.9 22.9 19.8 69 4.0 ESE 35 43 19 23 1013.6 1013.6 0.0
 
Date/Time
EST
Temp
°C
App
Temp
°C
Dew
Point
°C
Rel
Hum
%
Delta-T
°C
Wind Press
QNH
hPa
Press
MSL
hPa
Rain since
9am
mm
Dir  Spd
km/h
Gust
km/h
Spd
kts
Gust
kts
22/11:30pm 26.0 23.7 20.6 72 3.5 ESE 33 44 18 24 1013.8 1013.8 0.0
22/11:00pm 26.1 23.9 20.7 72 3.5 ESE 33 46 18 25 1013.9 1013.9 0.0
22/10:30pm 26.1 23.7 21.1 74 3.3 SE 35 43 19 23 1014.2 1014.2 0.0
22/10:00pm 26.1 24.2 20.9 73 3.4 ESE 32 41 17 22 1014.2 1014.2 0.0
22/09:30pm 26.0 23.8 20.3 71 3.7 SE 32 41 17 22 1014.3 1014.3 0.0
22/09:00pm 25.9 23.4 19.8 69 4.0 SE 32 39 17 21 1014.1 1014.1 0.0
22/08:30pm 26.0 23.0 19.9 69 4.0 SE 35 43 19 23 1014.0 1014.0 0.0
22/08:00pm 25.9 23.9 20.7 73 3.4 SE 32 39 17 21 1013.9 1013.9 0.0
22/07:30pm 26.0 23.6 20.3 71 3.7 SE 33 41 18 22 1013.8 1013.8 0.0
22/07:00pm 26.0 23.5 20.1 70 3.8 SE 33 44 18 24 1013.6 1013.6 0.0
22/06:30pm 26.0 23.2 20.3 71 3.7 SE 35 43 19 23 1013.2 1013.2 0.0
22/06:00pm 26.3 23.9 20.4 70 3.9 SE 33 43 18 23 1012.9 1012.9 0.0
22/05:30pm 26.3 24.1 20.8 71 3.6 SE 33 43 18 23 1012.6 1012.6 0.0
22/05:00pm 26.6 25.4 22.2 77 3.0 SE 32 43 17 23 1012.4 1012.4 0.0
22/04:30pm 26.8 25.4 22.0 75 3.2 SE 32 41 17 22 1012.3 1012.3 0.0
22/04:00pm 27.4 25.9 22.1 73 3.6 SE 33 43 18 23 1012.2 1012.2 0.0
22/03:30pm 27.4 25.9 21.7 71 3.8 SE 32 43 17 23 1012.4 1012.4 0.0
22/03:00pm 28.0 26.8 21.5 67 4.3 SE 30 39 16 21 1012.5 1012.5 0.0
22/02:30pm 27.7 26.5 21.5 69 4.1 SE 30 39 16 21 1012.8 1012.8 0.0
22/02:00pm 27.4 26.3 22.4 74 3.4 ESE 32 39 17 21 1013.0 1013.0 0.0
22/01:30pm 27.7 26.6 22.9 75 3.3 ESE 33 44 18 24 1013.1 1013.1 0.0
22/01:00pm 27.3 25.4 22.0 73 3.6 ESE 35 44 19 24 1013.2 1013.2 0.0
22/12:30pm 26.5 24.3 21.5 74 3.3 ESE 35 44 19 24 1013.7 1013.7 0.0
22/12:00pm 27.1 24.4 21.2 70 3.9 ESE 37 50 20 27 1013.8 1013.8 0.0
22/11:30am 27.5 26.2 23.1 77 3.0 ESE 35 46 19 25 1014.0 1014.0 0.0
22/11:00am 25.5 24.4 23.4 88 1.4 SE 35 48 19 26 1014.1 1014.1 0.0
22/10:30am 25.6 23.5 23.1 86 1.7 SE 39 50 21 27 1014.3 1014.3 0.0
22/10:00am 24.5 22.3 22.9 91 1.1 SE 39 54 21 29 1014.4 1014.4 0.0
22/09:30am 24.7 22.6 23.1 91 1.1 SE 39 52 21 28 1014.2 1014.2 0.0
22/09:00am 24.9 22.3 22.8 88 1.4 SE 41 54 22 29 1014.0 1014.0 0.0
22/08:30am 24.9 23.3 23.3 91 1.1 SE 37 54 20 29 1013.8 1013.8 0.0
22/08:00am 25.1 23.9 23.9 93 0.8 SE 37 46 20 25 1013.4 1013.4 0.0
22/07:30am 24.9 23.7 23.9 94 0.7 SE 37 50 20 27 1013.1 1013.1 0.0
22/07:00am 25.3 23.6 23.7 91 1.1 SE 39 50 21 27 1012.9 1012.9 0.0
22/06:30am 25.3 23.7 23.9 92 1.0 SE 39 54 21 29 1012.7 1012.7 0.0
22/06:00am 25.2 24.4 24.0 93 0.8 SE 35 48 19 26 1012.2 1012.2 0.0
22/05:30am 24.7 23.7 23.7 94 0.7 SE 35 48 19 26 1011.6 1011.6 0.0
22/05:00am 25.3 25.0 23.9 92 1.0 SE 32 41 17 22 1011.3 1011.3 0.0
22/04:30am 25.3 25.1 24.1 93 0.8 SE 32 41 17 22 1011.0 1011.0 0.0
22/04:00am 25.6 25.6 24.4 93 0.8 SE 32 43 17 23 1010.7 1010.7 0.0
22/03:30am 25.2 24.8 24.0 93 0.8 SE 33 43 18 23 1010.3 1010.3 0.0
22/03:23am 25.3 25.7 23.7 91 1.1 SE 28 43 15 23 1010.1 1010.1 0.0
22/03:00am 27.0 33.2 24.6 87 1.7 CALM 0 0 0 0 1010.3 1010.3 0.0
22/02:30am 26.9 33.0 24.4 86 1.7 CALM 0 0 0 0 1010.0 1010.0 0.0
22/02:00am 27.0 33.1 24.5 86 1.7 CALM 0 0 0 0 1010.0 1010.0 0.0
22/01:30am 27.2 33.5 24.7 86 1.7 CALM 0 0 0 0 1010.2 1010.2 0.0
22/01:00am 27.3 32.4 24.7 86 1.8 SE 6 9 3 5 1010.4 1010.4 0.0
22/12:30am 27.2 32.7 24.7 86 1.7 NW 4 7 2 4 1010.3 1010.3 0.0
22/12:00am 26.9 32.7 24.0 84 2.0 CALM 0 0 0 0 1010.3 1010.3 0.0
 
Date/Time
EST
Temp
°C
App
Temp
°C
Dew
Point
°C
Rel
Hum
%
Delta-T
°C
Wind Press
QNH
hPa
Press
MSL
hPa
Rain since
9am
mm
Dir  Spd
km/h
Gust
km/h
Spd
kts
Gust
kts
21/11:30pm 27.2 33.2 24.3 84 2.0 CALM 0 0 0 0 1010.4 1010.4 0.0
21/11:00pm 27.4 33.5 24.5 84 2.0 CALM 0 0 0 0 1010.9 1010.9 0.0
21/10:30pm 27.3 32.1 24.4 84 2.0 N 7 9 4 5 1010.6 1010.6 0.0
21/10:00pm 27.4 32.5 24.7 85 1.9 N 6 11 3 6 1010.3 1010.3 0.0
21/09:30pm 27.5 30.5 24.7 85 1.9 N 17 24 9 13 1009.6 1009.6 0.0

Other Formats:

Comma delimited format used in spreadsheet applications
http://www.bom.gov.au/fwo/IDQ60801/IDQ60801.94388.axf

JavaScript Object Notation format (JSON) in row-major order
http://www.bom.gov.au/fwo/IDQ60801/IDQ60801.94388.json